sensor_id;sensor_type;location;lat;lon;timestamp;P1;durP1;ratioP1;P2;durP2;ratioP2
37995;SDS011;23808;50.634;6.948;2022-07-23T00:02:59;36.60;;;21.60;;
37995;SDS011;23808;50.634;6.948;2022-07-23T00:06:59;42.63;;;19.80;;
37995;SDS011;23808;50.634;6.948;2022-07-23T00:11:00;38.83;;;20.57;;
37995;SDS011;23808;50.634;6.948;2022-07-23T00:15:01;39.03;;;20.90;;
37995;SDS011;23808;50.634;6.948;2022-07-23T00:19:02;41.30;;;22.13;;
37995;SDS011;23808;50.634;6.948;2022-07-23T00:23:03;40.10;;;21.13;;
37995;SDS011;23808;50.634;6.948;2022-07-23T00:27:04;33.03;;;18.90;;
37995;SDS011;23808;50.634;6.948;2022-07-23T00:31:05;42.93;;;22.50;;
37995;SDS011;23808;50.634;6.948;2022-07-23T00:35:06;42.20;;;23.00;;
37995;SDS011;23808;50.634;6.948;2022-07-23T00:39:06;43.33;;;23.67;;
37995;SDS011;23808;50.634;6.948;2022-07-23T00:43:07;50.90;;;25.13;;
37995;SDS011;23808;50.634;6.948;2022-07-23T00:47:08;46.07;;;23.87;;
37995;SDS011;23808;50.634;6.948;2022-07-23T00:51:08;53.10;;;25.43;;
37995;SDS011;23808;50.634;6.948;2022-07-23T00:55:09;43.43;;;23.83;;
37995;SDS011;23808;50.634;6.948;2022-07-23T00:59:11;47.40;;;24.30;;
37995;SDS011;23808;50.634;6.948;2022-07-23T01:03:12;42.10;;;24.87;;
37995;SDS011;23808;50.634;6.948;2022-07-23T01:07:13;56.13;;;26.27;;
37995;SDS011;23808;50.634;6.948;2022-07-23T01:11:13;52.00;;;25.50;;
37995;SDS011;23808;50.634;6.948;2022-07-23T01:15:14;59.90;;;28.77;;
37995;SDS011;23808;50.634;6.948;2022-07-23T01:19:16;56.40;;;25.50;;
37995;SDS011;23808;50.634;6.948;2022-07-23T01:23:17;53.73;;;27.10;;
37995;SDS011;23808;50.634;6.948;2022-07-23T01:27:17;52.03;;;25.90;;
37995;SDS011;23808;50.634;6.948;2022-07-23T01:31:19;50.37;;;29.47;;
37995;SDS011;23808;50.634;6.948;2022-07-23T01:35:20;53.77;;;25.43;;
37995;SDS011;23808;50.634;6.948;2022-07-23T01:39:20;53.10;;;29.37;;
37995;SDS011;23808;50.634;6.948;2022-07-23T01:43:21;53.67;;;28.90;;
37995;SDS011;23808;50.634;6.948;2022-07-23T01:47:22;63.70;;;30.23;;
37995;SDS011;23808;50.634;6.948;2022-07-23T01:51:22;58.80;;;28.80;;
37995;SDS011;23808;50.634;6.948;2022-07-23T01:55:23;52.90;;;28.90;;
37995;SDS011;23808;50.634;6.948;2022-07-23T01:59:24;60.17;;;29.80;;
37995;SDS011;23808;50.634;6.948;2022-07-23T02:03:25;51.80;;;29.13;;
37995;SDS011;23808;50.634;6.948;2022-07-23T02:07:26;59.43;;;32.10;;
37995;SDS011;23808;50.634;6.948;2022-07-23T02:11:27;56.13;;;31.90;;
37995;SDS011;23808;50.634;6.948;2022-07-23T02:15:27;62.77;;;30.17;;
37995;SDS011;23808;50.634;6.948;2022-07-23T02:19:28;61.40;;;28.77;;
37995;SDS011;23808;50.634;6.948;2022-07-23T02:23:29;50.97;;;29.60;;
37995;SDS011;23808;50.634;6.948;2022-07-23T02:27:29;58.47;;;29.87;;
37995;SDS011;23808;50.634;6.948;2022-07-23T02:31:30;50.10;;;28.93;;
37995;SDS011;23808;50.634;6.948;2022-07-23T02:35:31;53.83;;;29.17;;
37995;SDS011;23808;50.634;6.948;2022-07-23T02:39:32;64.17;;;31.20;;
37995;SDS011;23808;50.634;6.948;2022-07-23T02:43:33;61.40;;;31.90;;
37995;SDS011;23808;50.634;6.948;2022-07-23T02:47:33;59.40;;;29.20;;
37995;SDS011;23808;50.634;6.948;2022-07-23T02:51:34;54.70;;;28.70;;
37995;SDS011;23808;50.634;6.948;2022-07-23T02:55:34;58.03;;;29.97;;
37995;SDS011;23808;50.634;6.948;2022-07-23T02:59:35;62.17;;;31.63;;
37995;SDS011;23808;50.634;6.948;2022-07-23T03:03:36;66.93;;;32.97;;
37995;SDS011;23808;50.634;6.948;2022-07-23T03:07:36;66.50;;;33.70;;
37995;SDS011;23808;50.634;6.948;2022-07-23T03:11:37;65.80;;;33.13;;
37995;SDS011;23808;50.634;6.948;2022-07-23T03:15:37;64.63;;;34.13;;
37995;SDS011;23808;50.634;6.948;2022-07-23T03:19:38;70.57;;;33.53;;
37995;SDS011;23808;50.634;6.948;2022-07-23T03:23:38;63.03;;;34.40;;
37995;SDS011;23808;50.634;6.948;2022-07-23T03:27:39;64.13;;;33.47;;
37995;SDS011;23808;50.634;6.948;2022-07-23T03:31:40;64.13;;;34.03;;
37995;SDS011;23808;50.634;6.948;2022-07-23T03:35:40;68.73;;;34.13;;
37995;SDS011;23808;50.634;6.948;2022-07-23T03:39:41;69.23;;;37.10;;
37995;SDS011;23808;50.634;6.948;2022-07-23T03:43:42;75.80;;;36.23;;
37995;SDS011;23808;50.634;6.948;2022-07-23T03:47:42;72.20;;;34.93;;
37995;SDS011;23808;50.634;6.948;2022-07-23T03:51:44;65.37;;;32.80;;
37995;SDS011;23808;50.634;6.948;2022-07-23T03:55:44;60.93;;;33.30;;
37995;SDS011;23808;50.634;6.948;2022-07-23T03:59:45;66.90;;;35.53;;
37995;SDS011;23808;50.634;6.948;2022-07-23T04:03:46;76.53;;;38.93;;
37995;SDS011;23808;50.634;6.948;2022-07-23T04:07:46;81.50;;;35.83;;
37995;SDS011;23808;50.634;6.948;2022-07-23T04:11:50;65.47;;;33.80;;
37995;SDS011;23808;50.634;6.948;2022-07-23T04:15:50;66.30;;;33.93;;
37995;SDS011;23808;50.634;6.948;2022-07-23T04:19:51;69.77;;;32.90;;
37995;SDS011;23808;50.634;6.948;2022-07-23T04:23:51;65.20;;;31.90;;
37995;SDS011;23808;50.634;6.948;2022-07-23T04:27:52;56.33;;;30.63;;
37995;SDS011;23808;50.634;6.948;2022-07-23T04:31:53;60.77;;;32.97;;
37995;SDS011;23808;50.634;6.948;2022-07-23T04:35:53;71.37;;;34.10;;
37995;SDS011;23808;50.634;6.948;2022-07-23T04:39:54;61.77;;;30.47;;
37995;SDS011;23808;50.634;6.948;2022-07-23T04:43:54;71.00;;;31.30;;
37995;SDS011;23808;50.634;6.948;2022-07-23T04:47:55;62.57;;;31.57;;
37995;SDS011;23808;50.634;6.948;2022-07-23T04:51:57;64.73;;;31.00;;
37995;SDS011;23808;50.634;6.948;2022-07-23T04:55:57;68.80;;;33.50;;
37995;SDS011;23808;50.634;6.948;2022-07-23T04:59:58;58.37;;;30.53;;
37995;SDS011;23808;50.634;6.948;2022-07-23T05:03:58;58.17;;;27.57;;
37995;SDS011;23808;50.634;6.948;2022-07-23T05:07:59;51.43;;;28.77;;
37995;SDS011;23808;50.634;6.948;2022-07-23T05:11:59;59.70;;;28.97;;
37995;SDS011;23808;50.634;6.948;2022-07-23T05:16:00;47.80;;;24.37;;
37995;SDS011;23808;50.634;6.948;2022-07-23T05:20:01;46.70;;;25.60;;
37995;SDS011;23808;50.634;6.948;2022-07-23T05:24:02;48.90;;;23.83;;
37995;SDS011;23808;50.634;6.948;2022-07-23T05:28:03;51.07;;;28.03;;
37995;SDS011;23808;50.634;6.948;2022-07-23T05:32:04;51.67;;;27.17;;
37995;SDS011;23808;50.634;6.948;2022-07-23T05:36:05;52.27;;;27.87;;
37995;SDS011;23808;50.634;6.948;2022-07-23T05:40:06;46.70;;;24.13;;
37995;SDS011;23808;50.634;6.948;2022-07-23T05:44:08;57.30;;;27.20;;
37995;SDS011;23808;50.634;6.948;2022-07-23T05:48:09;53.83;;;27.07;;
37995;SDS011;23808;50.634;6.948;2022-07-23T05:52:10;45.10;;;25.70;;
37995;SDS011;23808;50.634;6.948;2022-07-23T05:56:10;52.83;;;25.27;;
37995;SDS011;23808;50.634;6.948;2022-07-23T06:00:11;39.77;;;24.50;;
37995;SDS011;23808;50.634;6.948;2022-07-23T06:04:12;46.23;;;25.60;;
37995;SDS011;23808;50.634;6.948;2022-07-23T06:08:12;56.97;;;26.50;;
37995;SDS011;23808;50.634;6.948;2022-07-23T06:12:13;48.30;;;24.70;;
37995;SDS011;23808;50.634;6.948;2022-07-23T06:16:13;54.63;;;26.17;;
37995;SDS011;23808;50.634;6.948;2022-07-23T06:20:14;50.27;;;22.30;;
37995;SDS011;23808;50.634;6.948;2022-07-23T06:24:15;38.33;;;21.30;;
37995;SDS011;23808;50.634;6.948;2022-07-23T06:28:15;48.43;;;22.07;;
37995;SDS011;23808;50.634;6.948;2022-07-23T06:32:16;39.60;;;20.37;;
37995;SDS011;23808;50.634;6.948;2022-07-23T06:36:16;39.87;;;19.23;;
37995;SDS011;23808;50.634;6.948;2022-07-23T06:40:17;30.23;;;19.23;;
37995;SDS011;23808;50.634;6.948;2022-07-23T06:44:18;34.27;;;18.00;;
37995;SDS011;23808;50.634;6.948;2022-07-23T06:48:18;36.43;;;18.83;;
37995;SDS011;23808;50.634;6.948;2022-07-23T06:52:19;33.63;;;18.47;;
37995;SDS011;23808;50.634;6.948;2022-07-23T06:56:20;29.30;;;15.90;;
37995;SDS011;23808;50.634;6.948;2022-07-23T07:00:20;21.63;;;13.63;;
37995;SDS011;23808;50.634;6.948;2022-07-23T07:04:21;20.50;;;12.57;;
37995;SDS011;23808;50.634;6.948;2022-07-23T07:08:22;18.63;;;10.80;;
37995;SDS011;23808;50.634;6.948;2022-07-23T07:12:22;15.97;;;9.37;;
37995;SDS011;23808;50.634;6.948;2022-07-23T07:16:23;14.30;;;7.87;;
37995;SDS011;23808;50.634;6.948;2022-07-23T07:20:24;16.63;;;10.30;;
37995;SDS011;23808;50.634;6.948;2022-07-23T07:24:24;14.70;;;7.07;;
37995;SDS011;23808;50.634;6.948;2022-07-23T07:28:25;12.13;;;8.30;;
37995;SDS011;23808;50.634;6.948;2022-07-23T07:32:25;13.80;;;8.10;;
37995;SDS011;23808;50.634;6.948;2022-07-23T07:36:26;9.57;;;7.20;;
37995;SDS011;23808;50.634;6.948;2022-07-23T07:40:27;10.90;;;7.63;;
37995;SDS011;23808;50.634;6.948;2022-07-23T07:44:28;15.50;;;7.50;;
37995;SDS011;23808;50.634;6.948;2022-07-23T07:48:28;18.23;;;7.63;;
37995;SDS011;23808;50.634;6.948;2022-07-23T07:52:29;13.77;;;8.93;;
37995;SDS011;23808;50.634;6.948;2022-07-23T07:56:29;17.23;;;9.33;;
37995;SDS011;23808;50.634;6.948;2022-07-23T08:00:30;14.33;;;8.20;;
37995;SDS011;23808;50.634;6.948;2022-07-23T08:04:31;19.20;;;8.47;;
37995;SDS011;23808;50.634;6.948;2022-07-23T08:08:32;10.77;;;7.90;;
37995;SDS011;23808;50.634;6.948;2022-07-23T08:12:45;15.57;;;9.70;;
37995;SDS011;23808;50.634;6.948;2022-07-23T08:16:50;15.90;;;8.60;;
37995;SDS011;23808;50.634;6.948;2022-07-23T08:20:51;13.50;;;8.23;;
37995;SDS011;23808;50.634;6.948;2022-07-23T08:24:51;14.73;;;7.30;;
37995;SDS011;23808;50.634;6.948;2022-07-23T08:28:52;9.53;;;6.90;;
37995;SDS011;23808;50.634;6.948;2022-07-23T08:32:54;13.80;;;9.20;;
37995;SDS011;23808;50.634;6.948;2022-07-23T08:36:59;11.07;;;8.43;;
37995;SDS011;23808;50.634;6.948;2022-07-23T08:40:59;15.63;;;8.23;;
37995;SDS011;23808;50.634;6.948;2022-07-23T08:45:00;15.40;;;9.70;;
37995;SDS011;23808;50.634;6.948;2022-07-23T08:49:03;11.87;;;7.83;;
37995;SDS011;23808;50.634;6.948;2022-07-23T08:53:05;12.60;;;8.70;;
37995;SDS011;23808;50.634;6.948;2022-07-23T08:57:07;16.17;;;9.10;;
37995;SDS011;23808;50.634;6.948;2022-07-23T09:01:08;29.57;;;10.67;;
37995;SDS011;23808;50.634;6.948;2022-07-23T09:05:09;19.73;;;9.67;;
37995;SDS011;23808;50.634;6.948;2022-07-23T09:09:20;13.97;;;8.00;;
37995;SDS011;23808;50.634;6.948;2022-07-23T09:17:36;18.13;;;10.47;;
37995;SDS011;23808;50.634;6.948;2022-07-23T09:21:41;14.83;;;9.20;;
37995;SDS011;23808;50.634;6.948;2022-07-23T09:25:42;13.83;;;8.23;;
37995;SDS011;23808;50.634;6.948;2022-07-23T09:29:54;12.40;;;8.50;;
37995;SDS011;23808;50.634;6.948;2022-07-23T09:34:05;18.10;;;8.80;;
37995;SDS011;23808;50.634;6.948;2022-07-23T09:38:07;10.80;;;8.50;;
37995;SDS011;23808;50.634;6.948;2022-07-23T09:42:21;14.73;;;9.60;;
37995;SDS011;23808;50.634;6.948;2022-07-23T09:46:27;13.57;;;7.53;;
37995;SDS011;23808;50.634;6.948;2022-07-23T09:50:27;12.50;;;7.90;;
37995;SDS011;23808;50.634;6.948;2022-07-23T09:58:39;12.20;;;8.93;;
37995;SDS011;23808;50.634;6.948;2022-07-23T10:02:45;11.40;;;8.00;;
37995;SDS011;23808;50.634;6.948;2022-07-23T10:06:47;7.93;;;6.93;;
37995;SDS011;23808;50.634;6.948;2022-07-23T10:10:50;10.27;;;6.90;;
37995;SDS011;23808;50.634;6.948;2022-07-23T10:14:53;8.40;;;6.40;;
37995;SDS011;23808;50.634;6.948;2022-07-23T10:18:53;7.77;;;6.97;;
37995;SDS011;23808;50.634;6.948;2022-07-23T10:36:08;6.13;;;5.53;;
37995;SDS011;23808;50.634;6.948;2022-07-23T10:40:28;12.07;;;6.97;;
37995;SDS011;23808;50.634;6.948;2022-07-23T10:44:33;5.83;;;4.40;;
37995;SDS011;23808;50.634;6.948;2022-07-23T10:48:42;5.93;;;5.10;;
37995;SDS011;23808;50.634;6.948;2022-07-23T10:53:07;4.37;;;4.03;;
37995;SDS011;23808;50.634;6.948;2022-07-23T10:57:12;6.03;;;5.23;;
37995;SDS011;23808;50.634;6.948;2022-07-23T11:05:41;6.47;;;4.73;;
37995;SDS011;23808;50.634;6.948;2022-07-23T11:09:43;7.60;;;5.30;;
37995;SDS011;23808;50.634;6.948;2022-07-23T11:13:46;5.30;;;3.90;;
37995;SDS011;23808;50.634;6.948;2022-07-23T11:21:51;6.13;;;4.40;;
37995;SDS011;23808;50.634;6.948;2022-07-23T11:25:52;3.20;;;3.00;;
37995;SDS011;23808;50.634;6.948;2022-07-23T11:29:53;6.90;;;4.83;;
37995;SDS011;23808;50.634;6.948;2022-07-23T11:38:32;6.67;;;5.73;;
37995;SDS011;23808;50.634;6.948;2022-07-23T11:42:33;7.73;;;5.50;;
37995;SDS011;23808;50.634;6.948;2022-07-23T11:46:34;7.20;;;5.90;;
37995;SDS011;23808;50.634;6.948;2022-07-23T11:50:35;6.13;;;5.53;;
37995;SDS011;23808;50.634;6.948;2022-07-23T11:54:49;7.63;;;6.67;;
37995;SDS011;23808;50.634;6.948;2022-07-23T11:58:54;8.30;;;5.73;;
37995;SDS011;23808;50.634;6.948;2022-07-23T12:02:58;6.70;;;6.00;;
37995;SDS011;23808;50.634;6.948;2022-07-23T12:07:00;8.73;;;6.00;;
37995;SDS011;23808;50.634;6.948;2022-07-23T12:11:01;6.20;;;5.37;;
37995;SDS011;23808;50.634;6.948;2022-07-23T12:15:02;6.63;;;5.97;;
37995;SDS011;23808;50.634;6.948;2022-07-23T12:19:04;6.30;;;5.70;;
37995;SDS011;23808;50.634;6.948;2022-07-23T12:23:06;7.33;;;6.53;;
37995;SDS011;23808;50.634;6.948;2022-07-23T12:27:11;7.40;;;5.83;;
37995;SDS011;23808;50.634;6.948;2022-07-23T12:31:13;6.50;;;5.90;;
37995;SDS011;23808;50.634;6.948;2022-07-23T12:35:14;5.30;;;4.80;;
37995;SDS011;23808;50.634;6.948;2022-07-23T12:39:29;4.97;;;4.67;;
37995;SDS011;23808;50.634;6.948;2022-07-23T12:43:32;5.77;;;5.10;;
37995;SDS011;23808;50.634;6.948;2022-07-23T12:48:07;5.83;;;5.30;;
37995;SDS011;23808;50.634;6.948;2022-07-23T12:52:15;5.27;;;4.87;;
37995;SDS011;23808;50.634;6.948;2022-07-23T12:56:17;6.20;;;4.70;;
37995;SDS011;23808;50.634;6.948;2022-07-23T13:00:19;8.97;;;5.57;;
37995;SDS011;23808;50.634;6.948;2022-07-23T13:04:20;6.37;;;4.93;;
37995;SDS011;23808;50.634;6.948;2022-07-23T13:08:22;6.07;;;5.57;;
37995;SDS011;23808;50.634;6.948;2022-07-23T13:12:24;6.70;;;5.60;;
37995;SDS011;23808;50.634;6.948;2022-07-23T13:16:25;7.07;;;5.30;;
37995;SDS011;23808;50.634;6.948;2022-07-23T13:20:26;7.33;;;6.40;;
37995;SDS011;23808;50.634;6.948;2022-07-23T13:24:27;10.10;;;5.60;;
37995;SDS011;23808;50.634;6.948;2022-07-23T13:28:27;4.93;;;4.53;;
37995;SDS011;23808;50.634;6.948;2022-07-23T13:32:28;6.50;;;5.90;;
37995;SDS011;23808;50.634;6.948;2022-07-23T13:36:28;6.83;;;5.43;;
37995;SDS011;23808;50.634;6.948;2022-07-23T13:40:29;4.90;;;4.50;;
37995;SDS011;23808;50.634;6.948;2022-07-23T13:44:30;7.63;;;5.30;;
37995;SDS011;23808;50.634;6.948;2022-07-23T13:48:31;10.70;;;4.90;;
37995;SDS011;23808;50.634;6.948;2022-07-23T13:52:31;6.83;;;5.10;;
37995;SDS011;23808;50.634;6.948;2022-07-23T13:56:35;8.13;;;5.40;;
37995;SDS011;23808;50.634;6.948;2022-07-23T14:00:37;5.57;;;5.00;;
37995;SDS011;23808;50.634;6.948;2022-07-23T14:04:40;4.83;;;4.30;;
37995;SDS011;23808;50.634;6.948;2022-07-23T14:08:41;4.73;;;4.23;;
37995;SDS011;23808;50.634;6.948;2022-07-23T14:12:42;5.00;;;4.70;;
37995;SDS011;23808;50.634;6.948;2022-07-23T14:16:42;4.87;;;4.47;;
37995;SDS011;23808;50.634;6.948;2022-07-23T14:20:43;12.30;;;4.20;;
37995;SDS011;23808;50.634;6.948;2022-07-23T14:24:44;5.03;;;4.60;;
37995;SDS011;23808;50.634;6.948;2022-07-23T14:28:45;4.63;;;4.23;;
37995;SDS011;23808;50.634;6.948;2022-07-23T14:32:45;5.47;;;4.60;;
37995;SDS011;23808;50.634;6.948;2022-07-23T14:36:46;6.30;;;5.70;;
37995;SDS011;23808;50.634;6.948;2022-07-23T14:40:46;8.13;;;4.03;;
37995;SDS011;23808;50.634;6.948;2022-07-23T14:44:47;4.67;;;4.27;;
37995;SDS011;23808;50.634;6.948;2022-07-23T14:48:48;10.00;;;5.17;;
37995;SDS011;23808;50.634;6.948;2022-07-23T14:52:48;5.10;;;4.70;;
37995;SDS011;23808;50.634;6.948;2022-07-23T14:56:49;5.27;;;4.57;;
37995;SDS011;23808;50.634;6.948;2022-07-23T15:00:50;7.17;;;5.17;;
37995;SDS011;23808;50.634;6.948;2022-07-23T15:04:50;4.60;;;4.10;;
37995;SDS011;23808;50.634;6.948;2022-07-23T15:08:51;4.63;;;4.23;;
37995;SDS011;23808;50.634;6.948;2022-07-23T15:12:52;5.10;;;4.70;;
37995;SDS011;23808;50.634;6.948;2022-07-23T15:16:52;7.33;;;4.43;;
37995;SDS011;23808;50.634;6.948;2022-07-23T15:20:53;5.70;;;4.00;;
37995;SDS011;23808;50.634;6.948;2022-07-23T15:24:53;12.30;;;5.43;;
37995;SDS011;23808;50.634;6.948;2022-07-23T15:28:54;17.37;;;12.37;;
37995;SDS011;23808;50.634;6.948;2022-07-23T15:32:55;5.17;;;4.43;;
37995;SDS011;23808;50.634;6.948;2022-07-23T15:37:00;5.60;;;4.80;;
37995;SDS011;23808;50.634;6.948;2022-07-23T15:41:01;4.83;;;4.43;;
37995;SDS011;23808;50.634;6.948;2022-07-23T15:45:02;5.40;;;4.70;;
37995;SDS011;23808;50.634;6.948;2022-07-23T15:49:04;7.30;;;4.83;;
37995;SDS011;23808;50.634;6.948;2022-07-23T15:53:05;4.63;;;4.33;;
37995;SDS011;23808;50.634;6.948;2022-07-23T15:57:06;5.60;;;4.90;;
37995;SDS011;23808;50.634;6.948;2022-07-23T16:01:06;4.80;;;4.30;;
37995;SDS011;23808;50.634;6.948;2022-07-23T16:05:07;18.90;;;13.17;;
37995;SDS011;23808;50.634;6.948;2022-07-23T16:09:08;5.37;;;4.87;;
37995;SDS011;23808;50.634;6.948;2022-07-23T16:13:09;5.97;;;5.30;;
37995;SDS011;23808;50.634;6.948;2022-07-23T16:17:09;6.23;;;5.00;;
37995;SDS011;23808;50.634;6.948;2022-07-23T16:21:11;19.97;;;14.80;;
37995;SDS011;23808;50.634;6.948;2022-07-23T16:25:12;14.57;;;9.60;;
37995;SDS011;23808;50.634;6.948;2022-07-23T16:29:13;9.00;;;8.03;;
37995;SDS011;23808;50.634;6.948;2022-07-23T16:33:14;10.03;;;8.20;;
37995;SDS011;23808;50.634;6.948;2022-07-23T16:37:15;7.80;;;7.10;;
37995;SDS011;23808;50.634;6.948;2022-07-23T16:41:15;10.20;;;7.33;;
37995;SDS011;23808;50.634;6.948;2022-07-23T16:45:16;8.97;;;4.13;;
37995;SDS011;23808;50.634;6.948;2022-07-23T16:49:17;9.20;;;6.80;;
37995;SDS011;23808;50.634;6.948;2022-07-23T16:53:17;5.30;;;4.80;;
37995;SDS011;23808;50.634;6.948;2022-07-23T16:57:19;6.57;;;5.00;;
37995;SDS011;23808;50.634;6.948;2022-07-23T17:01:21;11.40;;;7.30;;
37995;SDS011;23808;50.634;6.948;2022-07-23T17:05:22;8.23;;;5.40;;
37995;SDS011;23808;50.634;6.948;2022-07-23T17:09:23;4.80;;;4.13;;
37995;SDS011;23808;50.634;6.948;2022-07-23T17:13:24;8.10;;;4.17;;
37995;SDS011;23808;50.634;6.948;2022-07-23T17:17:25;8.53;;;5.17;;
37995;SDS011;23808;50.634;6.948;2022-07-23T17:21:26;12.00;;;5.40;;
37995;SDS011;23808;50.634;6.948;2022-07-23T17:25:26;3.73;;;3.43;;
37995;SDS011;23808;50.634;6.948;2022-07-23T17:29:27;5.60;;;4.90;;
37995;SDS011;23808;50.634;6.948;2022-07-23T17:33:27;5.87;;;4.43;;
37995;SDS011;23808;50.634;6.948;2022-07-23T17:37:28;4.77;;;4.20;;
37995;SDS011;23808;50.634;6.948;2022-07-23T17:41:29;5.50;;;4.40;;
37995;SDS011;23808;50.634;6.948;2022-07-23T17:45:29;5.20;;;4.53;;
37995;SDS011;23808;50.634;6.948;2022-07-23T17:49:30;6.40;;;4.37;;
37995;SDS011;23808;50.634;6.948;2022-07-23T17:53:31;5.23;;;3.77;;
37995;SDS011;23808;50.634;6.948;2022-07-23T17:57:31;11.33;;;10.30;;
37995;SDS011;23808;50.634;6.948;2022-07-23T18:01:32;7.20;;;4.77;;
37995;SDS011;23808;50.634;6.948;2022-07-23T18:05:35;7.57;;;4.77;;
37995;SDS011;23808;50.634;6.948;2022-07-23T18:09:36;4.43;;;3.97;;
37995;SDS011;23808;50.634;6.948;2022-07-23T18:13:36;5.20;;;4.80;;
37995;SDS011;23808;50.634;6.948;2022-07-23T18:17:37;4.03;;;3.70;;
37995;SDS011;23808;50.634;6.948;2022-07-23T18:21:38;6.83;;;4.40;;
37995;SDS011;23808;50.634;6.948;2022-07-23T18:25:39;9.23;;;4.37;;
37995;SDS011;23808;50.634;6.948;2022-07-23T18:29:39;7.53;;;4.07;;
37995;SDS011;23808;50.634;6.948;2022-07-23T18:33:40;7.50;;;4.20;;
37995;SDS011;23808;50.634;6.948;2022-07-23T18:37:41;5.67;;;4.33;;
37995;SDS011;23808;50.634;6.948;2022-07-23T18:41:42;4.73;;;4.30;;
37995;SDS011;23808;50.634;6.948;2022-07-23T18:45:43;4.87;;;4.30;;
37995;SDS011;23808;50.634;6.948;2022-07-23T18:49:44;5.87;;;5.10;;
37995;SDS011;23808;50.634;6.948;2022-07-23T18:53:44;5.20;;;4.70;;
37995;SDS011;23808;50.634;6.948;2022-07-23T18:57:45;4.47;;;4.07;;
37995;SDS011;23808;50.634;6.948;2022-07-23T19:01:45;11.17;;;4.73;;
37995;SDS011;23808;50.634;6.948;2022-07-23T19:05:47;5.00;;;4.60;;
37995;SDS011;23808;50.634;6.948;2022-07-23T19:09:47;7.60;;;4.90;;
37995;SDS011;23808;50.634;6.948;2022-07-23T19:13:48;7.93;;;5.50;;
37995;SDS011;23808;50.634;6.948;2022-07-23T19:17:48;9.93;;;5.53;;
37995;SDS011;23808;50.634;6.948;2022-07-23T19:21:49;6.17;;;5.13;;
37995;SDS011;23808;50.634;6.948;2022-07-23T19:25:50;5.73;;;4.50;;
37995;SDS011;23808;50.634;6.948;2022-07-23T19:29:50;6.70;;;5.03;;
37995;SDS011;23808;50.634;6.948;2022-07-23T19:33:51;6.23;;;4.00;;
37995;SDS011;23808;50.634;6.948;2022-07-23T19:37:52;6.50;;;5.07;;
37995;SDS011;23808;50.634;6.948;2022-07-23T19:41:52;7.97;;;4.70;;
37995;SDS011;23808;50.634;6.948;2022-07-23T19:45:53;9.40;;;4.97;;
37995;SDS011;23808;50.634;6.948;2022-07-23T19:49:53;5.90;;;5.07;;
37995;SDS011;23808;50.634;6.948;2022-07-23T19:53:54;10.00;;;7.10;;
37995;SDS011;23808;50.634;6.948;2022-07-23T19:57:55;7.73;;;5.90;;
37995;SDS011;23808;50.634;6.948;2022-07-23T20:01:55;7.27;;;6.50;;
37995;SDS011;23808;50.634;6.948;2022-07-23T20:05:56;9.10;;;7.03;;
37995;SDS011;23808;50.634;6.948;2022-07-23T20:09:57;8.50;;;5.80;;
37995;SDS011;23808;50.634;6.948;2022-07-23T20:13:58;12.03;;;8.10;;
37995;SDS011;23808;50.634;6.948;2022-07-23T20:17:59;8.53;;;6.80;;
37995;SDS011;23808;50.634;6.948;2022-07-23T20:22:01;6.90;;;6.20;;
37995;SDS011;23808;50.634;6.948;2022-07-23T20:26:02;10.53;;;8.70;;
37995;SDS011;23808;50.634;6.948;2022-07-23T20:30:04;9.60;;;7.33;;
37995;SDS011;23808;50.634;6.948;2022-07-23T20:34:06;10.93;;;8.93;;
37995;SDS011;23808;50.634;6.948;2022-07-23T20:38:07;14.00;;;9.33;;
37995;SDS011;23808;50.634;6.948;2022-07-23T20:42:08;12.47;;;8.40;;
37995;SDS011;23808;50.634;6.948;2022-07-23T20:46:09;12.73;;;8.73;;
37995;SDS011;23808;50.634;6.948;2022-07-23T20:50:09;11.30;;;7.97;;
37995;SDS011;23808;50.634;6.948;2022-07-23T20:54:10;11.30;;;7.20;;
37995;SDS011;23808;50.634;6.948;2022-07-23T20:58:11;10.40;;;7.17;;
37995;SDS011;23808;50.634;6.948;2022-07-23T21:02:11;11.03;;;7.00;;
37995;SDS011;23808;50.634;6.948;2022-07-23T21:06:12;7.67;;;6.87;;
37995;SDS011;23808;50.634;6.948;2022-07-23T21:10:12;10.50;;;7.03;;
37995;SDS011;23808;50.634;6.948;2022-07-23T21:14:13;8.57;;;7.07;;
37995;SDS011;23808;50.634;6.948;2022-07-23T21:18:14;12.30;;;6.07;;
37995;SDS011;23808;50.634;6.948;2022-07-23T21:22:15;9.40;;;7.40;;
37995;SDS011;23808;50.634;6.948;2022-07-23T21:26:16;8.30;;;6.67;;
37995;SDS011;23808;50.634;6.948;2022-07-23T21:30:17;6.80;;;6.20;;
37995;SDS011;23808;50.634;6.948;2022-07-23T21:34:18;10.03;;;6.73;;
37995;SDS011;23808;50.634;6.948;2022-07-23T21:38:19;9.60;;;6.97;;
37995;SDS011;23808;50.634;6.948;2022-07-23T21:42:20;11.90;;;6.20;;
37995;SDS011;23808;50.634;6.948;2022-07-23T21:46:20;10.10;;;7.40;;
37995;SDS011;23808;50.634;6.948;2022-07-23T21:50:21;9.00;;;7.37;;
37995;SDS011;23808;50.634;6.948;2022-07-23T21:54:22;10.13;;;6.77;;
37995;SDS011;23808;50.634;6.948;2022-07-23T21:58:22;8.43;;;6.13;;
37995;SDS011;23808;50.634;6.948;2022-07-23T22:02:23;6.53;;;5.93;;
37995;SDS011;23808;50.634;6.948;2022-07-23T22:06:23;12.70;;;8.63;;
37995;SDS011;23808;50.634;6.948;2022-07-23T22:10:24;15.30;;;9.70;;
37995;SDS011;23808;50.634;6.948;2022-07-23T22:14:26;11.03;;;8.30;;
37995;SDS011;23808;50.634;6.948;2022-07-23T22:18:27;12.93;;;8.40;;
37995;SDS011;23808;50.634;6.948;2022-07-23T22:22:27;11.00;;;7.73;;
37995;SDS011;23808;50.634;6.948;2022-07-23T22:26:28;12.27;;;7.93;;
37995;SDS011;23808;50.634;6.948;2022-07-23T22:30:28;11.33;;;8.40;;
37995;SDS011;23808;50.634;6.948;2022-07-23T22:34:29;14.20;;;7.70;;
37995;SDS011;23808;50.634;6.948;2022-07-23T22:38:30;9.30;;;6.87;;
37995;SDS011;23808;50.634;6.948;2022-07-23T22:42:30;7.57;;;6.63;;
37995;SDS011;23808;50.634;6.948;2022-07-23T22:46:34;8.10;;;7.30;;
37995;SDS011;23808;50.634;6.948;2022-07-23T22:50:34;9.70;;;7.30;;
37995;SDS011;23808;50.634;6.948;2022-07-23T22:54:35;7.93;;;7.13;;
37995;SDS011;23808;50.634;6.948;2022-07-23T22:58:35;9.63;;;6.80;;
37995;SDS011;23808;50.634;6.948;2022-07-23T23:02:36;20.80;;;7.97;;
37995;SDS011;23808;50.634;6.948;2022-07-23T23:06:37;11.83;;;6.50;;
37995;SDS011;23808;50.634;6.948;2022-07-23T23:10:37;8.43;;;7.00;;
37995;SDS011;23808;50.634;6.948;2022-07-23T23:14:38;7.57;;;6.83;;
37995;SDS011;23808;50.634;6.948;2022-07-23T23:18:38;10.30;;;7.10;;
37995;SDS011;23808;50.634;6.948;2022-07-23T23:22:39;7.30;;;6.30;;
37995;SDS011;23808;50.634;6.948;2022-07-23T23:26:40;8.93;;;7.73;;
37995;SDS011;23808;50.634;6.948;2022-07-23T23:30:40;12.33;;;8.30;;
37995;SDS011;23808;50.634;6.948;2022-07-23T23:34:41;12.53;;;7.80;;
37995;SDS011;23808;50.634;6.948;2022-07-23T23:38:42;10.57;;;6.60;;
37995;SDS011;23808;50.634;6.948;2022-07-23T23:42:43;7.03;;;6.33;;
37995;SDS011;23808;50.634;6.948;2022-07-23T23:46:44;9.50;;;7.50;;
37995;SDS011;23808;50.634;6.948;2022-07-23T23:50:45;9.00;;;7.00;;
37995;SDS011;23808;50.634;6.948;2022-07-23T23:54:45;8.67;;;7.77;;
37995;SDS011;23808;50.634;6.948;2022-07-23T23:58:46;11.10;;;8.30;;
